Time;durP1;ratioP1;P1;durP2;ratioP2;P2;SDS_P1;SDS_P2;PMS_P1;PMS_P2;Temp;Humidity;BMP_temperature;BMP_pressure;BME280_temperature;BME280_humidity;BME280_pressure;Samples;Min_cycle;Max_cycle;Signal;HPM_P1;HPM_P2
2021/12/19 00:02:19;;;;;;;33.50;16.02;;;;;;;;;;5052347;28;20032;-62
2021/12/19 00:09:54;;;;;;;25.52;13.80;;;;;;;;;;5069200;28;20032;-62
2021/12/19 00:12:19;;;;;;;23.95;13.88;;;;;;;;;;5069055;28;20384;-64
2021/12/19 00:14:44;;;;;;;27.70;15.05;;;;;;;;;;5051280;28;20438;-61
2021/12/19 00:17:10;;;;;;;30.55;15.15;;;;;;;;;;5069017;28;20036;-64
2021/12/19 00:19:35;;;;;;;22.67;14.20;;;;;;;;;;5068973;28;20059;-63
2021/12/19 00:22:01;;;;;;;27.20;14.20;;;;;;;;;;5035298;28;20036;-61
2021/12/19 00:24:27;;;;;;;29.05;15.18;;;;;;;;;;5053627;28;20024;-62
2021/12/19 00:26:52;;;;;;;25.52;13.85;;;;;;;;;;5070340;28;20040;-61
2021/12/19 00:29:18;;;;;;;25.83;13.95;;;;;;;;;;5069970;28;20032;-62
2021/12/19 00:31:45;;;;;;;23.65;14.57;;;;;;;;;;5070354;28;20576;-61
2021/12/19 00:34:11;;;;;;;23.38;13.68;;;;;;;;;;5052551;28;20043;-62
2021/12/19 00:36:37;;;;;;;25.15;13.50;;;;;;;;;;5052451;28;20568;-63
2021/12/19 00:39:02;;;;;;;24.55;14.40;;;;;;;;;;5070484;28;20036;-61
2021/12/19 00:41:28;;;;;;;23.20;14.18;;;;;;;;;;5072455;28;20038;-61
2021/12/19 00:43:55;;;;;;;21.30;14.15;;;;;;;;;;5072268;28;20035;-60
2021/12/19 00:46:23;;;;;;;25.48;13.93;;;;;;;;;;5067897;28;20076;-63
2021/12/19 00:48:50;;;;;;;26.92;14.25;;;;;;;;;;5068694;28;20037;-63
2021/12/19 00:51:17;;;;;;;20.33;12.25;;;;;;;;;;5072390;28;20049;-61
2021/12/19 00:53:45;;;;;;;20.88;13.02;;;;;;;;;;5068318;28;20032;-60
2021/12/19 00:56:12;;;;;;;28.85;15.15;;;;;;;;;;5041616;28;20033;-61
2021/12/19 00:58:37;;;;;;;22.02;12.73;;;;;;;;;;5065361;28;20016;-61
2021/12/19 01:01:04;;;;;;;19.30;12.80;;;;;;;;;;5054743;28;20052;-61
2021/12/19 01:03:29;;;;;;;21.17;12.55;;;;;;;;;;5050732;28;20037;-61
2021/12/19 01:05:55;;;;;;;18.08;10.68;;;;;;;;;;5034385;28;20473;-61
2021/12/19 01:08:21;;;;;;;19.73;11.77;;;;;;;;;;5050754;28;20116;-62
2021/12/19 01:10:47;;;;;;;21.67;12.60;;;;;;;;;;5052022;28;20124;-62
2021/12/19 01:13:14;;;;;;;22.13;12.43;;;;;;;;;;5051901;28;20043;-63
2021/12/19 01:15:40;;;;;;;19.58;12.30;;;;;;;;;;5052131;28;20025;-61
2021/12/19 01:18:07;;;;;;;17.00;11.65;;;;;;;;;;5034059;28;20033;-61
2021/12/19 01:20:33;;;;;;;19.20;11.90;;;;;;;;;;5041199;28;20459;-61
2021/12/19 01:22:59;;;;;;;16.85;11.48;;;;;;;;;;5063968;28;20488;-61
2021/12/19 01:25:24;;;;;;;18.58;11.38;;;;;;;;;;5070253;28;20036;-62
2021/12/19 01:27:50;;;;;;;18.80;11.60;;;;;;;;;;5070576;28;20032;-62
2021/12/19 01:30:15;;;;;;;18.40;10.77;;;;;;;;;;5053807;28;20044;-62
2021/12/19 01:32:41;;;;;;;20.05;10.48;;;;;;;;;;5071697;28;20021;-61
2021/12/19 01:35:08;;;;;;;20.13;11.43;;;;;;;;;;5070439;28;20039;-61
2021/12/19 01:37:33;;;;;;;17.67;10.82;;;;;;;;;;5071679;28;20507;-61
2021/12/19 01:39:59;;;;;;;17.00;10.95;;;;;;;;;;5073054;28;20032;-61
2021/12/19 01:42:35;;;;;;;25.48;11.15;;;;;;;;;;5075196;28;20031;-61
2021/12/19 01:45:01;;;;;;;17.20;10.48;;;;;;;;;;5073747;28;20029;-61
2021/12/19 01:47:27;;;;;;;15.77;9.07;;;;;;;;;;5074927;28;20123;-62
2021/12/19 01:49:52;;;;;;;19.95;10.05;;;;;;;;;;5073741;28;20123;-62
2021/12/19 01:52:19;;;;;;;16.10;9.32;;;;;;;;;;5074988;28;20044;-61
2021/12/19 01:54:45;;;;;;;15.80;9.10;;;;;;;;;;5075004;28;20082;-61
2021/12/19 01:57:10;;;;;;;16.17;9.25;;;;;;;;;;5074935;28;20024;-62
2021/12/19 01:59:35;;;;;;;17.40;9.10;;;;;;;;;;5074902;28;20044;-61
2021/12/19 02:02:01;;;;;;;14.48;8.80;;;;;;;;;;5074653;28;20093;-61
2021/12/19 02:04:30;;;;;;;15.80;9.02;;;;;;;;;;5073597;28;20446;-61
2021/12/19 02:06:55;;;;;;;17.25;9.75;;;;;;;;;;5073598;28;20115;-61
2021/12/19 02:09:21;;;;;;;15.43;8.25;;;;;;;;;;5074729;28;20494;-62
2021/12/19 02:11:46;;;;;;;13.48;7.97;;;;;;;;;;5074647;28;20040;-61
2021/12/19 02:14:12;;;;;;;16.02;8.27;;;;;;;;;;5074654;28;20033;-62
2021/12/19 02:16:38;;;;;;;15.77;9.23;;;;;;;;;;5074510;28;20103;-61
2021/12/19 02:19:05;;;;;;;13.95;7.25;;;;;;;;;;5073397;28;20025;-62
2021/12/19 02:21:30;;;;;;;13.32;7.20;;;;;;;;;;5074662;28;20036;-61
2021/12/19 02:23:56;;;;;;;14.98;6.80;;;;;;;;;;5074501;28;20382;-61
2021/12/19 02:26:21;;;;;;;13.00;7.15;;;;;;;;;;5090101;28;20033;-61
2021/12/19 02:28:47;;;;;;;15.65;7.80;;;;;;;;;;5073294;28;20025;-61
2021/12/19 02:31:12;;;;;;;12.05;7.25;;;;;;;;;;5074174;28;20391;-61
2021/12/19 02:33:42;;;;;;;10.88;6.47;;;;;;;;;;5039970;28;20052;-61
2021/12/19 02:36:25;;;;;;;12.85;6.90;;;;;;;;;;5074353;28;20033;-62
2021/12/19 02:49:45;;;;;;;12.32;6.43;;;;;;;;;;5073829;28;20044;-62
2021/12/19 02:52:12;;;;;;;11.80;6.40;;;;;;;;;;5073965;28;20108;-63
2021/12/19 02:54:38;;;;;;;13.68;7.35;;;;;;;;;;5089626;28;20035;-62
2021/12/19 02:57:03;;;;;;;10.02;6.80;;;;;;;;;;5073919;28;20036;-62
2021/12/19 02:59:31;;;;;;;12.13;6.50;;;;;;;;;;5073981;28;20074;-62
2021/12/19 03:01:56;;;;;;;11.25;7.43;;;;;;;;;;5089624;28;20369;-62
2021/12/19 03:04:22;;;;;;;12.98;6.72;;;;;;;;;;5073940;28;20086;-62
2021/12/19 03:06:48;;;;;;;11.10;6.82;;;;;;;;;;5074031;28;20037;-61
2021/12/19 03:09:19;;;;;;;10.23;6.85;;;;;;;;;;5089579;28;20039;-62
2021/12/19 03:19:44;;;;;;;17.63;7.43;;;;;;;;;;5055984;28;20052;-61
2021/12/19 03:22:09;;;;;;;12.13;7.05;;;;;;;;;;5055911;28;20136;-61
2021/12/19 03:24:34;;;;;;;12.20;7.13;;;;;;;;;;5073713;28;20468;-61
2021/12/19 03:27:00;;;;;;;12.18;6.82;;;;;;;;;;5073554;28;20115;-61
2021/12/19 03:29:25;;;;;;;12.15;6.75;;;;;;;;;;5073497;28;20024;-61
2021/12/19 03:31:51;;;;;;;12.90;6.82;;;;;;;;;;5073296;28;20115;-61
2021/12/19 03:34:16;;;;;;;12.00;6.78;;;;;;;;;;5073507;28;20404;-62
2021/12/19 03:36:42;;;;;;;13.30;6.90;;;;;;;;;;5073595;28;20484;-62
2021/12/19 03:39:14;;;;;;;11.07;6.32;;;;;;;;;;5073425;28;20035;-62
2021/12/19 03:41:41;;;;;;;11.98;6.93;;;;;;;;;;5073739;28;20116;-61
2021/12/19 03:44:06;;;;;;;12.38;6.65;;;;;;;;;;5055317;28;20054;-60
2021/12/19 03:46:32;;;;;;;15.45;7.25;;;;;;;;;;5073076;28;20040;-61
2021/12/19 03:48:58;;;;;;;13.05;7.38;;;;;;;;;;5071973;28;20033;-60
2021/12/19 03:51:23;;;;;;;12.18;7.05;;;;;;;;;;5073025;28;20076;-60
2021/12/19 03:53:49;;;;;;;13.70;7.50;;;;;;;;;;5073254;28;20029;-62
2021/12/19 03:56:14;;;;;;;13.45;7.30;;;;;;;;;;5073077;28;20111;-61
2021/12/19 03:58:40;;;;;;;13.07;7.40;;;;;;;;;;5073136;28;20025;-61
2021/12/19 04:01:08;;;;;;;16.27;7.55;;;;;;;;;;5088037;28;20036;-60
2021/12/19 04:03:34;;;;;;;13.23;7.15;;;;;;;;;;5061762;28;20116;-62
2021/12/19 04:06:00;;;;;;;14.60;7.32;;;;;;;;;;5049091;28;20120;-61
2021/12/19 04:08:25;;;;;;;15.85;7.85;;;;;;;;;;5049003;28;20431;-61
2021/12/19 04:10:52;;;;;;;13.30;7.40;;;;;;;;;;5048630;28;20040;-61
2021/12/19 04:13:17;;;;;;;14.70;7.32;;;;;;;;;;5047531;28;20044;-64
2021/12/19 04:15:43;;;;;;;11.65;6.50;;;;;;;;;;5048766;28;20045;-61
2021/12/19 04:18:09;;;;;;;13.50;7.10;;;;;;;;;;5047578;28;20480;-62
2021/12/19 04:20:34;;;;;;;14.48;6.95;;;;;;;;;;5048948;28;20041;-61
2021/12/19 04:22:59;;;;;;;11.35;6.95;;;;;;;;;;5048619;28;20029;-61
2021/12/19 04:25:25;;;;;;;12.35;7.18;;;;;;;;;;5049399;28;20044;-62
2021/12/19 04:27:50;;;;;;;11.30;6.70;;;;;;;;;;5048644;28;20480;-61
2021/12/19 04:30:17;;;;;;;12.98;6.65;;;;;;;;;;5048797;28;20118;-61
2021/12/19 04:32:46;;;;;;;13.43;7.80;;;;;;;;;;5047019;28;20037;-62
2021/12/19 04:35:12;;;;;;;15.23;8.00;;;;;;;;;;5047558;28;20515;-61
2021/12/19 04:40:15;;;;;;;11.65;6.93;;;;;;;;;;5048577;28;20037;-62
2021/12/19 05:02:10;;;;;;;14.60;6.88;;;;;;;;;;4986523;28;20070;-67
2021/12/19 05:15:31;;;;;;;13.25;7.45;;;;;;;;;;5052372;28;20083;-61
2021/12/19 05:18:01;;;;;;;14.27;6.97;;;;;;;;;;5051828;28;20037;-61
2021/12/19 05:20:29;;;;;;;16.48;7.35;;;;;;;;;;5051762;28;20396;-61
2021/12/19 05:23:01;;;;;;;13.23;6.88;;;;;;;;;;5051231;28;20033;-62
2021/12/19 05:25:27;;;;;;;16.02;7.28;;;;;;;;;;5050331;28;20066;-62
2021/12/19 05:27:56;;;;;;;11.82;6.80;;;;;;;;;;5051396;28;20037;-62
2021/12/19 05:30:23;;;;;;;10.40;6.45;;;;;;;;;;5033652;28;20044;-62
2021/12/19 05:32:49;;;;;;;15.52;7.47;;;;;;;;;;5051472;28;20028;-61
2021/12/19 05:35:21;;;;;;;12.82;7.10;;;;;;;;;;5051355;28;20475;-61
2021/12/19 05:45:58;;;;;;;13.60;7.35;;;;;;;;;;5050048;28;20040;-61
2021/12/19 05:48:23;;;;;;;14.18;7.40;;;;;;;;;;5051378;28;20035;-62
2021/12/19 05:50:49;;;;;;;15.25;7.82;;;;;;;;;;5050272;28;20477;-62
2021/12/19 05:53:15;;;;;;;11.35;7.20;;;;;;;;;;5051075;28;20091;-62
2021/12/19 05:55:40;;;;;;;16.55;7.53;;;;;;;;;;5050137;28;20032;-62
2021/12/19 05:58:06;;;;;;;10.82;6.65;;;;;;;;;;5050961;28;20037;-62
2021/12/19 06:00:33;;;;;;;12.15;6.57;;;;;;;;;;5051330;28;20116;-61
2021/12/19 06:03:02;;;;;;;18.13;8.90;;;;;;;;;;5033017;28;20037;-61
2021/12/19 06:05:28;;;;;;;21.30;10.88;;;;;;;;;;5033223;28;20041;-61
2021/12/19 06:07:53;;;;;;;23.00;11.73;;;;;;;;;;5033012;28;20082;-61
2021/12/19 06:10:20;;;;;;;22.10;10.98;;;;;;;;;;5033129;28;20037;-62
2021/12/19 06:12:45;;;;;;;22.77;9.25;;;;;;;;;;5050766;28;20060;-63
2021/12/19 06:15:11;;;;;;;18.48;9.60;;;;;;;;;;5050878;28;20091;-62
2021/12/19 06:17:38;;;;;;;20.88;9.77;;;;;;;;;;5050863;28;20560;-61
2021/12/19 06:20:04;;;;;;;16.83;9.18;;;;;;;;;;5032914;28;20064;-61
2021/12/19 06:22:29;;;;;;;18.98;9.55;;;;;;;;;;5032573;28;20072;-64
2021/12/19 06:24:54;;;;;;;18.50;8.75;;;;;;;;;;5049646;28;20029;-61
2021/12/19 06:27:20;;;;;;;16.58;9.85;;;;;;;;;;5051715;28;20036;-67
2021/12/19 06:29:45;;;;;;;18.83;8.40;;;;;;;;;;5070453;28;20043;-61
2021/12/19 06:32:11;;;;;;;14.00;8.38;;;;;;;;;;5068524;28;20115;-66
2021/12/19 06:34:36;;;;;;;12.73;7.85;;;;;;;;;;5068953;28;20032;-62
2021/12/19 06:37:02;;;;;;;18.73;10.05;;;;;;;;;;5070609;28;20028;-66
2021/12/19 06:39:27;;;;;;;21.00;10.20;;;;;;;;;;5070853;28;20040;-62
2021/12/19 06:41:53;;;;;;;20.52;10.80;;;;;;;;;;5070243;28;20044;-62
2021/12/19 06:44:18;;;;;;;20.85;11.93;;;;;;;;;;5070370;28;20583;-62
2021/12/19 06:46:44;;;;;;;23.42;12.93;;;;;;;;;;5068769;28;20078;-62
2021/12/19 06:49:09;;;;;;;23.98;12.02;;;;;;;;;;5070248;28;20075;-62
2021/12/19 06:51:34;;;;;;;26.50;12.98;;;;;;;;;;5070330;28;20396;-63
2021/12/19 06:54:00;;;;;;;32.30;16.73;;;;;;;;;;5070567;28;20614;-61
2021/12/19 06:56:26;;;;;;;27.52;14.00;;;;;;;;;;5068955;28;20033;-63
2021/12/19 06:58:51;;;;;;;34.47;15.60;;;;;;;;;;5069709;28;20498;-63
2021/12/19 07:01:17;;;;;;;31.85;16.38;;;;;;;;;;5068649;28;20043;-61
2021/12/19 07:03:42;;;;;;;30.55;16.50;;;;;;;;;;5070275;28;20029;-62
2021/12/19 07:06:08;;;;;;;31.08;16.65;;;;;;;;;;5070085;28;20112;-61
2021/12/19 07:08:33;;;;;;;29.35;15.60;;;;;;;;;;5069869;28;20029;-67
2021/12/19 07:10:59;;;;;;;37.35;17.67;;;;;;;;;;5069698;28;20037;-62
2021/12/19 07:13:24;;;;;;;33.10;16.95;;;;;;;;;;5069996;28;20468;-62
2021/12/19 07:15:51;;;;;;;28.13;15.80;;;;;;;;;;5051721;28;20660;-61
2021/12/19 07:18:16;;;;;;;29.67;15.20;;;;;;;;;;5085377;28;20031;-61
2021/12/19 07:20:43;;;;;;;24.48;13.65;;;;;;;;;;5069571;28;20037;-67
2021/12/19 07:23:15;;;;;;;27.95;12.93;;;;;;;;;;5045862;28;20020;-61
2021/12/19 07:25:41;;;;;;;19.67;11.05;;;;;;;;;;5035275;28;20040;-61
2021/12/19 07:28:07;;;;;;;20.75;10.77;;;;;;;;;;5051886;28;20032;-64
2021/12/19 07:30:36;;;;;;;18.90;9.70;;;;;;;;;;5051714;28;20458;-61
2021/12/19 07:33:02;;;;;;;18.00;10.27;;;;;;;;;;5051886;28;20494;-60
2021/12/19 07:35:29;;;;;;;15.30;9.32;;;;;;;;;;5051389;28;20028;-60
2021/12/19 07:37:56;;;;;;;20.05;9.20;;;;;;;;;;5033894;28;20021;-61
2021/12/19 07:40:23;;;;;;;18.73;10.93;;;;;;;;;;5051536;28;20111;-61
2021/12/19 07:42:49;;;;;;;17.52;9.93;;;;;;;;;;5061631;28;20036;-62
2021/12/19 07:45:15;;;;;;;17.48;9.55;;;;;;;;;;5071540;28;20028;-61
2021/12/19 07:47:41;;;;;;;16.83;9.15;;;;;;;;;;5071459;28;20031;-65
2021/12/19 07:50:07;;;;;;;16.75;8.85;;;;;;;;;;5088277;28;20036;-61
2021/12/19 07:52:32;;;;;;;15.75;8.30;;;;;;;;;;5071338;28;20058;-62
2021/12/19 07:54:58;;;;;;;13.20;7.60;;;;;;;;;;5081426;28;20472;-62
2021/12/19 07:57:23;;;;;;;10.80;7.18;;;;;;;;;;5063747;28;20504;-62
2021/12/19 07:59:49;;;;;;;12.27;6.43;;;;;;;;;;5067821;28;20602;-60
2021/12/19 08:02:14;;;;;;;12.15;6.53;;;;;;;;;;5068822;28;20542;-61
2021/12/19 08:04:40;;;;;;;14.40;6.88;;;;;;;;;;5069319;28;20032;-60
2021/12/19 08:07:11;;;;;;;10.60;6.10;;;;;;;;;;5068469;28;20040;-65
2021/12/19 08:09:57;;;;;;;13.55;6.97;;;;;;;;;;5067547;28;20039;-60
2021/12/19 08:12:22;;;;;;;14.85;6.60;;;;;;;;;;5084290;28;20040;-61
2021/12/19 08:14:48;;;;;;;11.85;6.55;;;;;;;;;;5069105;28;20105;-62
2021/12/19 08:17:17;;;;;;;12.52;7.15;;;;;;;;;;5067353;28;20434;-61
2021/12/19 08:19:44;;;;;;;12.15;7.25;;;;;;;;;;5068020;28;20062;-67
2021/12/19 08:22:14;;;;;;;11.93;6.40;;;;;;;;;;5084811;28;20024;-61
2021/12/19 08:24:39;;;;;;;12.23;6.47;;;;;;;;;;5067837;28;20032;-64
2021/12/19 08:27:05;;;;;;;10.75;6.53;;;;;;;;;;5050894;28;20038;-60
2021/12/19 08:29:31;;;;;;;10.82;6.18;;;;;;;;;;5069173;28;20476;-60
2021/12/19 08:31:58;;;;;;;11.52;7.72;;;;;;;;;;5034066;28;20036;-59
2021/12/19 08:34:24;;;;;;;14.70;8.63;;;;;;;;;;5049637;28;20075;-61
2021/12/19 08:36:49;;;;;;;17.10;8.35;;;;;;;;;;5048563;28;20032;-61
2021/12/19 08:39:15;;;;;;;12.57;8.02;;;;;;;;;;5048544;28;20041;-60
2021/12/19 08:41:40;;;;;;;14.10;7.90;;;;;;;;;;5047205;28;20044;-63
2021/12/19 08:44:06;;;;;;;12.70;7.75;;;;;;;;;;5048365;28;20516;-63
2021/12/19 08:46:35;;;;;;;12.85;7.88;;;;;;;;;;5048655;28;20040;-66
2021/12/19 08:49:01;;;;;;;13.73;7.70;;;;;;;;;;5047275;28;20041;-64
2021/12/19 08:51:26;;;;;;;15.68;8.63;;;;;;;;;;5064557;28;20561;-63
2021/12/19 08:53:52;;;;;;;13.40;8.93;;;;;;;;;;5049441;28;20704;-62
2021/12/19 08:56:17;;;;;;;12.60;8.05;;;;;;;;;;5068004;28;20032;-62
2021/12/19 08:58:43;;;;;;;13.38;7.60;;;;;;;;;;5067798;28;20048;-63
2021/12/19 09:01:08;;;;;;;16.83;8.52;;;;;;;;;;5069779;28;20044;-63
2021/12/19 09:03:34;;;;;;;12.63;7.38;;;;;;;;;;5088663;28;20040;-63
2021/12/19 09:05:59;;;;;;;12.85;7.38;;;;;;;;;;5087830;28;20032;-67
2021/12/19 09:08:25;;;;;;;17.50;7.32;;;;;;;;;;5068640;28;20028;-62
2021/12/19 09:10:51;;;;;;;12.02;7.90;;;;;;;;;;5057509;28;20043;-63
2021/12/19 09:13:16;;;;;;;12.73;7.25;;;;;;;;;;5067222;28;20031;-63
2021/12/19 09:15:42;;;;;;;11.65;7.57;;;;;;;;;;5065572;28;20064;-63
2021/12/19 09:18:08;;;;;;;12.23;7.50;;;;;;;;;;5066333;28;20075;-63
2021/12/19 09:20:35;;;;;;;13.07;7.68;;;;;;;;;;5048046;28;20031;-68
2021/12/19 09:23:00;;;;;;;11.52;7.35;;;;;;;;;;5065927;28;20459;-62
2021/12/19 09:25:26;;;;;;;10.80;7.38;;;;;;;;;;5065971;28;20396;-66
2021/12/19 09:27:51;;;;;;;10.75;7.03;;;;;;;;;;5066329;28;20029;-63
2021/12/19 09:30:17;;;;;;;10.93;7.78;;;;;;;;;;5065903;28;20664;-63
2021/12/19 09:32:43;;;;;;;13.77;8.35;;;;;;;;;;5064266;28;20036;-62
2021/12/19 09:35:08;;;;;;;13.07;8.00;;;;;;;;;;5047980;28;20032;-68
2021/12/19 09:37:36;;;;;;;12.20;8.07;;;;;;;;;;5065719;28;20563;-65
2021/12/19 09:40:06;;;;;;;12.15;7.90;;;;;;;;;;5031321;28;20034;-64
2021/12/19 09:42:34;;;;;;;15.07;7.57;;;;;;;;;;5031428;28;20036;-64
2021/12/19 09:45:01;;;;;;;13.95;8.45;;;;;;;;;;5066952;28;20484;-62
2021/12/19 09:47:26;;;;;;;15.75;7.65;;;;;;;;;;5050160;28;20062;-62
2021/12/19 09:49:53;;;;;;;12.25;7.65;;;;;;;;;;5067716;28;20575;-63
2021/12/19 09:52:18;;;;;;;14.52;7.13;;;;;;;;;;5044397;28;20119;-62
2021/12/19 09:54:44;;;;;;;9.85;7.03;;;;;;;;;;5046137;28;20756;-62
2021/12/19 09:57:09;;;;;;;11.38;7.25;;;;;;;;;;5047581;28;20032;-62
2021/12/19 09:59:35;;;;;;;13.02;7.25;;;;;;;;;;5048442;28;20025;-61
2021/12/19 10:02:00;;;;;;;12.68;7.80;;;;;;;;;;5050971;28;20484;-62
2021/12/19 10:04:37;;;;;;;12.93;6.97;;;;;;;;;;5051221;28;20052;-66
2021/12/19 10:07:19;;;;;;;13.10;7.80;;;;;;;;;;5049280;28;20040;-62
2021/12/19 10:09:51;;;;;;;11.85;7.30;;;;;;;;;;5033277;28;20074;-62
2021/12/19 10:15:02;;;;;;;10.95;6.95;;;;;;;;;;5067087;28;20036;-68
2021/12/19 10:17:27;;;;;;;12.27;7.85;;;;;;;;;;5070034;28;20037;-62
2021/12/19 10:19:54;;;;;;;12.45;8.05;;;;;;;;;;5051673;28;20484;-63
2021/12/19 10:22:25;;;;;;;12.43;7.43;;;;;;;;;;5070390;28;20028;-64
2021/12/19 10:24:51;;;;;;;9.88;7.07;;;;;;;;;;5069176;28;20168;-61
2021/12/19 10:27:35;;;;;;;12.80;7.35;;;;;;;;;;5050821;28;20032;-61
2021/12/19 10:30:02;;;;;;;9.20;6.28;;;;;;;;;;5068989;28;20429;-63
2021/12/19 10:32:27;;;;;;;8.77;5.13;;;;;;;;;;5050932;28;20051;-63
2021/12/19 10:35:13;;;;;;;8.73;4.75;;;;;;;;;;5068304;28;20032;-63
2021/12/19 10:37:39;;;;;;;9.82;4.07;;;;;;;;;;5067878;28;20071;-62
2021/12/19 10:40:04;;;;;;;6.82;4.18;;;;;;;;;;5068422;28;20063;-64
2021/12/19 10:42:34;;;;;;;7.00;3.22;;;;;;;;;;5068313;28;20036;-69
2021/12/19 10:47:44;;;;;;;13.32;3.65;;;;;;;;;;5068621;28;20050;-65
2021/12/19 10:50:09;;;;;;;9.98;4.55;;;;;;;;;;5070346;28;20384;-64
2021/12/19 10:52:36;;;;;;;9.77;4.78;;;;;;;;;;5070209;28;20033;-69
2021/12/19 10:55:07;;;;;;;11.63;4.28;;;;;;;;;;5052089;28;20365;-62
2021/12/19 10:57:34;;;;;;;11.27;4.15;;;;;;;;;;5052129;28;20063;-61
2021/12/19 11:00:00;;;;;;;10.38;4.15;;;;;;;;;;5052055;28;20032;-62
2021/12/19 11:02:39;;;;;;;7.32;3.35;;;;;;;;;;5070415;28;20475;-62
2021/12/19 11:05:04;;;;;;;9.32;3.63;;;;;;;;;;5070256;28;20036;-63
2021/12/19 11:07:30;;;;;;;7.05;2.60;;;;;;;;;;5069996;28;20103;-66
2021/12/19 11:09:55;;;;;;;6.78;3.00;;;;;;;;;;5069848;28;20093;-62
2021/12/19 11:12:21;;;;;;;7.00;2.90;;;;;;;;;;5070247;28;20051;-62
2021/12/19 11:14:48;;;;;;;9.10;3.60;;;;;;;;;;5069736;28;20032;-62
2021/12/19 11:17:20;;;;;;;7.88;3.75;;;;;;;;;;5035662;28;20111;-62
2021/12/19 11:19:46;;;;;;;7.07;4.10;;;;;;;;;;5035679;28;20089;-61
2021/12/19 11:22:12;;;;;;;7.40;3.70;;;;;;;;;;5051721;28;20025;-64
2021/12/19 11:24:38;;;;;;;9.00;3.33;;;;;;;;;;5051533;28;20562;-61
2021/12/19 11:27:05;;;;;;;7.20;3.58;;;;;;;;;;5051536;28;20033;-61
2021/12/19 11:29:31;;;;;;;7.75;3.42;;;;;;;;;;5069676;28;20030;-62
2021/12/19 11:31:58;;;;;;;8.27;3.20;;;;;;;;;;5069525;28;20410;-62
2021/12/19 11:34:24;;;;;;;9.57;3.28;;;;;;;;;;5035268;28;20077;-63
2021/12/19 11:36:53;;;;;;;6.05;2.85;;;;;;;;;;5069317;28;20427;-63
2021/12/19 11:39:18;;;;;;;5.97;2.90;;;;;;;;;;5051631;28;20078;-61
2021/12/19 11:42:02;;;;;;;5.15;2.97;;;;;;;;;;5069973;28;20033;-62
2021/12/19 11:44:35;;;;;;;8.05;3.08;;;;;;;;;;5069534;28;20033;-63
2021/12/19 11:47:05;;;;;;;6.93;3.30;;;;;;;;;;5051567;28;20063;-62
2021/12/19 11:49:31;;;;;;;7.40;2.80;;;;;;;;;;5051531;28;20046;-62
2021/12/19 11:52:15;;;;;;;6.57;3.22;;;;;;;;;;5035130;28;20033;-62
2021/12/19 11:54:41;;;;;;;5.40;2.88;;;;;;;;;;5069087;28;20063;-62
2021/12/19 11:57:07;;;;;;;7.20;2.85;;;;;;;;;;5069352;28;20429;-63
2021/12/19 11:59:33;;;;;;;6.97;3.10;;;;;;;;;;5050883;28;20028;-61
2021/12/19 12:02:18;;;;;;;4.40;2.50;;;;;;;;;;5051321;28;20075;-60
2021/12/19 12:04:44;;;;;;;7.55;3.30;;;;;;;;;;5069038;28;20029;-60
2021/12/19 12:07:10;;;;;;;6.38;3.30;;;;;;;;;;5067794;28;20037;-61
2021/12/19 12:09:40;;;;;;;6.28;3.53;;;;;;;;;;5034843;28;20048;-66
2021/12/19 12:12:08;;;;;;;7.07;3.38;;;;;;;;;;5034963;28;20040;-61
2021/12/19 12:14:38;;;;;;;6.90;3.28;;;;;;;;;;5051246;28;20127;-61
2021/12/19 12:17:09;;;;;;;5.93;3.13;;;;;;;;;;5051030;28;20437;-61
2021/12/19 12:19:49;;;;;;;5.40;2.70;;;;;;;;;;5051087;28;20503;-61
2021/12/19 12:22:35;;;;;;;7.32;3.08;;;;;;;;;;5050306;28;20036;-61
2021/12/19 12:25:04;;;;;;;6.93;2.78;;;;;;;;;;5034470;28;20043;-60
2021/12/19 12:27:37;;;;;;;4.78;2.47;;;;;;;;;;5034465;28;20986;-60
2021/12/19 12:30:04;;;;;;;6.00;2.92;;;;;;;;;;5034183;28;20033;-61
2021/12/19 12:32:30;;;;;;;4.90;2.67;;;;;;;;;;5050827;28;20452;-60
2021/12/19 12:34:55;;;;;;;6.20;3.35;;;;;;;;;;5068331;28;20071;-68
2021/12/19 12:37:22;;;;;;;5.65;2.60;;;;;;;;;;5068560;28;20032;-60
2021/12/19 12:39:48;;;;;;;6.35;3.10;;;;;;;;;;5034400;28;20032;-60
2021/12/19 12:42:16;;;;;;;5.90;3.28;;;;;;;;;;5067511;28;20033;-63
2021/12/19 12:44:42;;;;;;;7.05;3.10;;;;;;;;;;5068747;28;20063;-67
2021/12/19 12:47:07;;;;;;;5.38;2.70;;;;;;;;;;5068588;28;20040;-61
2021/12/19 12:49:34;;;;;;;7.18;3.38;;;;;;;;;;5068701;28;20403;-62
2021/12/19 12:52:01;;;;;;;4.57;2.72;;;;;;;;;;5034128;28;20036;-63
2021/12/19 12:54:33;;;;;;;5.32;2.42;;;;;;;;;;5050159;28;20067;-62
2021/12/19 12:57:00;;;;;;;4.82;2.33;;;;;;;;;;5067099;28;20040;-61
2021/12/19 12:59:29;;;;;;;7.03;2.88;;;;;;;;;;5033739;28;20376;-62
2021/12/19 13:02:07;;;;;;;5.32;3.03;;;;;;;;;;5050240;28;20041;-63
2021/12/19 13:04:33;;;;;;;7.70;2.90;;;;;;;;;;5050415;28;20043;-64
2021/12/19 13:07:11;;;;;;;4.70;2.63;;;;;;;;;;5067802;28;20028;-62
2021/12/19 13:09:42;;;;;;;5.97;2.42;;;;;;;;;;5068226;28;20032;-69
2021/12/19 13:12:12;;;;;;;5.30;2.42;;;;;;;;;;5068162;28;20036;-62
2021/12/19 13:14:57;;;;;;;6.57;2.70;;;;;;;;;;5050131;28;20496;-66
2021/12/19 13:17:23;;;;;;;4.65;2.92;;;;;;;;;;5067346;28;20059;-62
2021/12/19 13:19:59;;;;;;;6.03;3.15;;;;;;;;;;5068316;28;20029;-61
2021/12/19 13:22:26;;;;;;;5.78;3.13;;;;;;;;;;5049840;28;20033;-62
2021/12/19 13:24:52;;;;;;;6.60;2.75;;;;;;;;;;5068039;28;20029;-60
2021/12/19 13:27:19;;;;;;;5.50;3.03;;;;;;;;;;5050133;28;20036;-60
2021/12/19 13:29:57;;;;;;;5.45;2.85;;;;;;;;;;5068109;28;20036;-62
2021/12/19 13:32:31;;;;;;;7.20;3.10;;;;;;;;;;5047116;28;20108;-62
2021/12/19 13:34:57;;;;;;;4.50;2.30;;;;;;;;;;5066861;28;20127;-62
2021/12/19 13:37:24;;;;;;;4.18;2.20;;;;;;;;;;5050702;28;20515;-61
2021/12/19 13:40:02;;;;;;;5.80;2.47;;;;;;;;;;5050129;28;20044;-62
2021/12/19 13:42:45;;;;;;;4.97;2.47;;;;;;;;;;5050326;28;20116;-60
2021/12/19 13:45:41;;;;;;;7.25;3.58;;;;;;;;;;5070658;28;20036;-63
2021/12/19 13:48:15;;;;;;;3.78;1.95;;;;;;;;;;5058284;28;20040;-66
2021/12/19 13:50:42;;;;;;;4.30;1.80;;;;;;;;;;5071225;28;20036;-63
2021/12/19 13:53:08;;;;;;;4.20;1.90;;;;;;;;;;5036696;28;20031;-65
2021/12/19 13:55:42;;;;;;;3.45;2.10;;;;;;;;;;5036964;28;20375;-61
2021/12/19 13:58:08;;;;;;;5.78;2.47;;;;;;;;;;5071678;28;20097;-62
2021/12/19 14:00:37;;;;;;;6.05;2.03;;;;;;;;;;5053206;28;20036;-70
2021/12/19 14:03:03;;;;;;;2.97;1.92;;;;;;;;;;5053122;28;20039;-60
2021/12/19 14:05:29;;;;;;;3.13;1.95;;;;;;;;;;5072343;28;20041;-60
2021/12/19 14:07:56;;;;;;;4.20;2.10;;;;;;;;;;5052967;28;20028;-61
2021/12/19 14:10:22;;;;;;;4.20;2.10;;;;;;;;;;5071688;28;20483;-61
2021/12/19 14:13:04;;;;;;;4.03;2.17;;;;;;;;;;5036100;28;20572;-62
2021/12/19 14:15:30;;;;;;;4.07;1.92;;;;;;;;;;5036402;28;20042;-61
2021/12/19 14:17:56;;;;;;;3.97;2.17;;;;;;;;;;5036413;28;20111;-61
2021/12/19 14:20:33;;;;;;;4.32;2.33;;;;;;;;;;5069279;28;20036;-62
2021/12/19 14:23:18;;;;;;;6.30;2.55;;;;;;;;;;5069443;28;20028;-61
2021/12/19 14:25:44;;;;;;;4.82;2.78;;;;;;;;;;5036448;28;20108;-62
2021/12/19 14:28:22;;;;;;;7.22;2.97;;;;;;;;;;5069088;28;20111;-61
2021/12/19 14:31:15;;;;;;;6.65;3.20;;;;;;;;;;5068896;28;20036;-62
2021/12/19 14:33:40;;;;;;;6.82;3.25;;;;;;;;;;5066304;28;20094;-61
2021/12/19 14:36:09;;;;;;;5.93;2.97;;;;;;;;;;5071029;28;20116;-61
2021/12/19 14:38:36;;;;;;;6.53;3.20;;;;;;;;;;5052342;28;20036;-64
2021/12/19 14:41:04;;;;;;;7.72;3.85;;;;;;;;;;5052563;28;20041;-61
2021/12/19 14:43:31;;;;;;;8.60;3.80;;;;;;;;;;5032939;28;20036;-62
2021/12/19 14:45:57;;;;;;;6.30;3.13;;;;;;;;;;5053044;28;20044;-64
2021/12/19 14:48:32;;;;;;;6.13;3.97;;;;;;;;;;5055012;28;20120;-62
2021/12/19 14:51:05;;;;;;;7.93;3.92;;;;;;;;;;5053251;28;20413;-61
2021/12/19 14:53:37;;;;;;;8.45;3.95;;;;;;;;;;5051429;28;20037;-61
2021/12/19 14:56:09;;;;;;;7.07;3.80;;;;;;;;;;5037542;28;20075;-62
2021/12/19 14:58:36;;;;;;;11.10;5.03;;;;;;;;;;5050825;28;20033;-62
2021/12/19 15:01:04;;;;;;;9.70;5.05;;;;;;;;;;5049398;28;20403;-61
2021/12/19 15:03:30;;;;;;;7.97;4.40;;;;;;;;;;5051560;28;20033;-62
2021/12/19 15:05:56;;;;;;;6.68;3.97;;;;;;;;;;5032990;28;20037;-64
2021/12/19 15:08:26;;;;;;;7.13;3.22;;;;;;;;;;5032359;28;20044;-62
2021/12/19 15:10:52;;;;;;;6.60;3.38;;;;;;;;;;5065029;28;20040;-62
2021/12/19 15:13:18;;;;;;;10.07;3.08;;;;;;;;;;5049861;28;20099;-61
2021/12/19 15:15:45;;;;;;;5.55;2.97;;;;;;;;;;5031759;28;20555;-63
2021/12/19 15:18:10;;;;;;;5.82;3.22;;;;;;;;;;5049465;28;20025;-64
2021/12/19 15:20:36;;;;;;;7.50;3.75;;;;;;;;;;5049856;28;20400;-64
2021/12/19 15:23:02;;;;;;;5.80;3.83;;;;;;;;;;5049775;28;20028;-62
2021/12/19 15:25:29;;;;;;;7.15;2.80;;;;;;;;;;5065330;28;20025;-60
2021/12/19 15:27:54;;;;;;;5.53;2.92;;;;;;;;;;5049752;28;20049;-61
2021/12/19 15:30:20;;;;;;;7.88;3.38;;;;;;;;;;5049474;28;20041;-59
2021/12/19 15:32:46;;;;;;;4.28;2.40;;;;;;;;;;5049289;28;20033;-60
2021/12/19 15:35:11;;;;;;;6.80;3.10;;;;;;;;;;5049539;28;20029;-60
2021/12/19 15:37:37;;;;;;;5.90;2.95;;;;;;;;;;5049551;28;20029;-61
2021/12/19 15:40:06;;;;;;;7.70;3.25;;;;;;;;;;5064586;28;20542;-59
2021/12/19 15:42:31;;;;;;;4.38;2.72;;;;;;;;;;5049700;28;20025;-61
2021/12/19 15:44:59;;;;;;;6.80;2.63;;;;;;;;;;5049489;28;20040;-67